createdAt,value
2022-12-31T00:01:41.546Z,100.00
2022-12-31T00:04:09.208Z,100.00
2022-12-31T00:06:37.556Z,100.00
2022-12-31T00:09:08.632Z,100.00
2022-12-31T00:11:37.380Z,100.00
2022-12-31T00:14:05.805Z,100.00
2022-12-31T00:16:36.428Z,100.00
2022-12-31T00:19:06.102Z,100.00
2022-12-31T00:21:35.179Z,100.00
2022-12-31T00:24:04.393Z,100.00
2022-12-31T00:26:35.262Z,100.00
2022-12-31T00:29:03.842Z,100.00
2022-12-31T00:31:33.838Z,100.00
2022-12-31T00:34:02.072Z,100.00
2022-12-31T00:36:31.865Z,100.00
2022-12-31T00:39:01.727Z,100.00
2022-12-31T00:41:30.207Z,100.00
2022-12-31T00:43:59.463Z,100.00
2022-12-31T00:46:27.290Z,100.00
2022-12-31T00:48:55.539Z,100.00
2022-12-31T00:51:27.226Z,100.00
2022-12-31T00:53:55.132Z,100.00
2022-12-31T00:56:24.977Z,100.00
2022-12-31T00:58:53.312Z,100.00
2022-12-31T01:01:24.321Z,100.00
2022-12-31T01:03:55.133Z,100.00
2022-12-31T01:06:23.329Z,100.00
2022-12-31T01:08:51.641Z,100.00
2022-12-31T01:11:22.111Z,100.00
2022-12-31T01:13:52.429Z,100.00
2022-12-31T01:16:24.396Z,100.00
2022-12-31T01:18:52.780Z,100.00
2022-12-31T01:21:20.928Z,100.00
2022-12-31T01:23:49.135Z,100.00
2022-12-31T01:26:19.257Z,100.00
2022-12-31T01:28:47.583Z,100.00
2022-12-31T01:31:17.256Z,100.00
2022-12-31T01:33:46.920Z,100.00
2022-12-31T01:36:20.364Z,100.00
2022-12-31T01:38:51.655Z,100.00
2022-12-31T01:41:21.273Z,100.00
2022-12-31T01:43:51.368Z,100.00
2022-12-31T01:46:26.344Z,100.00
2022-12-31T01:48:59.858Z,100.00
2022-12-31T01:51:31.332Z,100.00
2022-12-31T01:54:01.331Z,100.00
2022-12-31T01:56:29.296Z,100.00
2022-12-31T01:58:58.567Z,100.00
2022-12-31T02:01:29.416Z,100.00
2022-12-31T02:03:58.630Z,100.00
2022-12-31T02:06:30.872Z,100.00
2022-12-31T02:08:59.429Z,100.00
2022-12-31T02:11:29.563Z,100.00
2022-12-31T02:14:01.502Z,100.00
2022-12-31T02:16:36.707Z,100.00
2022-12-31T02:19:27.021Z,100.00
2022-12-31T02:22:00.039Z,100.00
2022-12-31T02:24:43.849Z,100.00
2022-12-31T02:27:17.297Z,100.00
2022-12-31T02:30:07.659Z,100.00
2022-12-31T02:32:48.648Z,100.00
2022-12-31T02:35:22.894Z,100.00
2022-12-31T02:37:56.654Z,100.00
2022-12-31T02:40:24.553Z,100.00
2022-12-31T02:42:55.533Z,100.00
2022-12-31T02:45:30.680Z,100.00
2022-12-31T02:48:18.110Z,100.00
2022-12-31T02:50:58.995Z,100.00
2022-12-31T02:53:39.716Z,100.00
2022-12-31T02:56:14.602Z,100.00
2022-12-31T02:59:08.183Z,100.00
2022-12-31T03:01:59.931Z,100.00
2022-12-31T03:04:36.065Z,100.00
2022-12-31T03:07:06.032Z,100.00
2022-12-31T03:09:34.309Z,100.00
2022-12-31T03:12:20.431Z,100.00
2022-12-31T03:14:48.081Z,100.00
2022-12-31T03:17:17.120Z,100.00
2022-12-31T03:20:02.337Z,100.00
2022-12-31T03:22:30.238Z,100.00
2022-12-31T03:25:21.008Z,100.00
2022-12-31T03:27:48.817Z,100.00
2022-12-31T03:30:18.813Z,100.00
2022-12-31T03:32:49.025Z,100.00
2022-12-31T03:35:20.153Z,100.00
2022-12-31T03:37:50.098Z,100.00
2022-12-31T03:40:18.888Z,100.00
2022-12-31T03:42:46.786Z,100.00
2022-12-31T03:45:14.904Z,100.00
2022-12-31T03:47:42.753Z,100.00
2022-12-31T03:50:13.881Z,100.00
2022-12-31T03:52:41.626Z,100.00
2022-12-31T03:55:10.753Z,100.00
2022-12-31T03:57:38.979Z,100.00
2022-12-31T04:00:09.328Z,100.00
2022-12-31T04:02:37.541Z,100.00
2022-12-31T04:05:06.070Z,100.00
2022-12-31T04:07:35.129Z,100.00
2022-12-31T04:10:03.079Z,100.00
2022-12-31T04:12:30.756Z,100.00
2022-12-31T04:14:58.478Z,100.00
2022-12-31T04:17:26.960Z,100.00
2022-12-31T04:19:54.673Z,100.00
2022-12-31T04:22:22.323Z,100.00
2022-12-31T04:24:51.400Z,100.00
2022-12-31T04:27:19.099Z,100.00
2022-12-31T04:29:46.781Z,100.00
2022-12-31T04:32:14.475Z,100.00
2022-12-31T04:34:42.172Z,100.00
2022-12-31T04:37:09.810Z,100.00
2022-12-31T04:39:37.479Z,100.00
2022-12-31T04:42:06.604Z,100.00
2022-12-31T04:44:35.094Z,100.00
2022-12-31T04:47:02.873Z,100.00
2022-12-31T04:49:30.532Z,100.00
2022-12-31T04:51:58.195Z,100.00
2022-12-31T04:54:25.867Z,100.00
2022-12-31T04:56:53.539Z,100.00
2022-12-31T04:59:22.598Z,100.00
2022-12-31T05:01:50.509Z,100.00
2022-12-31T05:04:18.282Z,100.00
2022-12-31T05:06:45.986Z,100.00
2022-12-31T05:09:13.780Z,100.00
2022-12-31T05:11:41.441Z,100.00
2022-12-31T05:14:09.094Z,100.00
2022-12-31T05:16:38.211Z,100.00
2022-12-31T05:19:09.375Z,100.00
2022-12-31T05:21:37.296Z,100.00
2022-12-31T05:24:05.557Z,100.00
2022-12-31T05:26:33.318Z,100.00
2022-12-31T05:29:01.291Z,100.00
2022-12-31T05:31:28.942Z,100.00
2022-12-31T05:33:58.426Z,100.00
2022-12-31T05:36:26.026Z,100.00
2022-12-31T05:38:53.722Z,100.00
2022-12-31T05:41:21.338Z,100.00
2022-12-31T05:43:49.005Z,100.00
2022-12-31T05:46:17.077Z,100.00
2022-12-31T05:48:44.776Z,100.00
2022-12-31T05:51:13.795Z,100.00
2022-12-31T05:53:41.427Z,100.00
2022-12-31T05:56:09.106Z,100.00
2022-12-31T05:58:36.803Z,100.00
2022-12-31T06:01:04.506Z,100.00
2022-12-31T06:03:32.208Z,100.00
2022-12-31T06:06:02.282Z,100.00
2022-12-31T06:08:31.298Z,100.00
2022-12-31T06:10:58.950Z,100.00
2022-12-31T06:13:26.597Z,100.00
2022-12-31T06:15:54.394Z,100.00
2022-12-31T06:18:22.122Z,100.00
2022-12-31T06:20:49.755Z,100.00
2022-12-31T06:23:17.481Z,100.00
2022-12-31T06:25:46.472Z,100.00
2022-12-31T06:28:20.013Z,100.00
2022-12-31T06:30:48.388Z,100.00
2022-12-31T06:33:16.115Z,100.00
2022-12-31T06:35:43.723Z,100.00
2022-12-31T06:38:11.442Z,100.00
2022-12-31T06:40:39.193Z,100.00
2022-12-31T06:43:08.174Z,100.00
2022-12-31T06:45:35.892Z,100.00
2022-12-31T06:48:03.563Z,100.00
2022-12-31T06:50:31.163Z,100.00
2022-12-31T06:52:58.820Z,100.00
2022-12-31T06:55:27.347Z,100.00
2022-12-31T06:57:55.585Z,100.00
2022-12-31T07:00:25.303Z,100.00
2022-12-31T07:03:14.903Z,100.00
2022-12-31T07:05:48.119Z,100.00
2022-12-31T07:08:31.341Z,100.00
2022-12-31T07:11:06.242Z,100.00
2022-12-31T07:13:53.354Z,100.00
2022-12-31T07:16:33.363Z,100.00
2022-12-31T07:19:13.080Z,100.00
2022-12-31T07:21:42.306Z,100.00
2022-12-31T07:24:11.926Z,100.00
2022-12-31T07:26:56.828Z,100.00
2022-12-31T07:29:38.708Z,100.00
2022-12-31T07:32:20.303Z,100.00
2022-12-31T07:34:56.840Z,100.00
2022-12-31T07:37:36.182Z,100.00
2022-12-31T07:40:12.277Z,100.00
2022-12-31T07:42:45.751Z,100.00
2022-12-31T07:45:19.842Z,100.00
2022-12-31T07:47:49.571Z,100.00
2022-12-31T07:50:19.708Z,100.00
2022-12-31T07:52:47.871Z,100.00
2022-12-31T07:55:15.754Z,100.00
2022-12-31T07:57:51.301Z,100.00
2022-12-31T08:00:19.996Z,99.74
2022-12-31T08:03:03.633Z,99.28
2022-12-31T08:05:34.743Z,98.23
2022-12-31T08:08:13.207Z,98.56
2022-12-31T08:10:49.543Z,97.86
2022-12-31T08:13:18.777Z,98.52
2022-12-31T08:15:46.991Z,97.17
2022-12-31T08:18:16.467Z,96.68
2022-12-31T08:20:56.654Z,96.35
2022-12-31T08:23:30.022Z,95.78
2022-12-31T08:26:11.970Z,96.57
2022-12-31T08:28:56.111Z,96.11
2022-12-31T08:31:29.825Z,96.66
2022-12-31T08:34:08.320Z,96.61
2022-12-31T08:36:46.388Z,96.18
2022-12-31T08:39:24.406Z,95.51
2022-12-31T08:41:55.992Z,95.41
2022-12-31T08:44:35.100Z,95.36
2022-12-31T08:47:15.280Z,95.46
2022-12-31T08:49:44.870Z,95.70
2022-12-31T08:52:24.410Z,95.62
2022-12-31T08:54:53.139Z,94.97
2022-12-31T08:57:27.859Z,94.61
2022-12-31T09:00:05.789Z,95.28
2022-12-31T09:02:57.732Z,94.94
2022-12-31T09:05:32.644Z,94.26
2022-12-31T09:08:10.770Z,94.51
2022-12-31T09:10:43.831Z,94.68
2022-12-31T09:13:19.146Z,93.68
2022-12-31T09:15:52.762Z,93.71
2022-12-31T09:18:20.943Z,92.91
2022-12-31T09:20:50.514Z,93.07
2022-12-31T09:23:18.776Z,93.42
2022-12-31T09:25:56.632Z,93.25
2022-12-31T09:28:37.848Z,93.08
2022-12-31T09:31:12.470Z,92.91
2022-12-31T09:33:47.992Z,91.37
2022-12-31T09:36:23.336Z,91.74
2022-12-31T09:39:01.894Z,91.32
2022-12-31T09:42:03.132Z,91.66
2022-12-31T09:45:03.068Z,90.03
2022-12-31T09:47:59.127Z,89.56
2022-12-31T09:50:55.073Z,88.67
2022-12-31T09:53:39.509Z,89.27
2022-12-31T09:56:18.098Z,87.84
2022-12-31T09:58:56.270Z,87.27
2022-12-31T10:01:36.737Z,87.52
2022-12-31T10:04:14.874Z,86.01
2022-12-31T10:06:52.222Z,85.67
2022-12-31T10:09:41.629Z,84.89
2022-12-31T10:12:41.843Z,84.54
2022-12-31T10:15:33.788Z,85.02
2022-12-31T10:18:12.621Z,84.29
2022-12-31T10:20:51.938Z,85.05
2022-12-31T10:23:46.068Z,84.52
2022-12-31T10:26:29.065Z,84.55
2022-12-31T10:29:00.751Z,84.48
2022-12-31T10:31:39.410Z,84.21
2022-12-31T10:34:16.189Z,84.59
2022-12-31T10:36:57.151Z,84.52
2022-12-31T10:39:43.417Z,84.32
2022-12-31T10:42:36.727Z,84.27
2022-12-31T10:45:57.946Z,83.72
2022-12-31T10:49:06.356Z,83.81
2022-12-31T10:52:16.773Z,84.21
2022-12-31T10:55:06.845Z,84.36
2022-12-31T10:58:04.581Z,83.39
2022-12-31T11:00:39.501Z,84.17
2022-12-31T11:03:43.203Z,84.25
2022-12-31T11:06:39.305Z,83.79
2022-12-31T11:09:39.679Z,84.50
2022-12-31T11:12:26.511Z,85.20
2022-12-31T11:15:17.846Z,85.62
2022-12-31T11:17:59.179Z,86.21
2022-12-31T11:20:40.509Z,86.05
2022-12-31T11:23:22.074Z,86.74
2022-12-31T11:26:02.184Z,86.75
2022-12-31T11:29:03.835Z,86.27
2022-12-31T11:31:49.750Z,85.52
2022-12-31T11:34:32.981Z,85.81
2022-12-31T11:37:19.369Z,85.42
2022-12-31T11:39:54.201Z,85.67
2022-12-31T11:42:25.807Z,85.67
2022-12-31T11:45:00.732Z,84.65
2022-12-31T11:48:20.548Z,83.95
2022-12-31T11:50:45.738Z,84.62
2022-12-31T11:53:37.762Z,84.37
2022-12-31T11:56:15.056Z,84.00
2022-12-31T11:58:47.827Z,84.48
2022-12-31T12:01:20.943Z,84.08
2022-12-31T12:03:50.190Z,82.79
2022-12-31T12:06:20.739Z,82.59
2022-12-31T12:08:49.473Z,82.00
2022-12-31T12:11:21.598Z,81.51
2022-12-31T12:13:49.495Z,82.42
2022-12-31T12:16:17.715Z,82.06
2022-12-31T12:18:47.693Z,82.14
2022-12-31T12:21:18.949Z,80.91
2022-12-31T12:23:56.644Z,79.98
2022-12-31T12:26:30.879Z,78.68
2022-12-31T12:29:01.914Z,78.50
2022-12-31T12:31:30.534Z,78.28
2022-12-31T12:33:58.172Z,78.56
2022-12-31T12:36:27.219Z,78.07
2022-12-31T12:39:02.963Z,78.36
2022-12-31T12:41:30.647Z,77.93
2022-12-31T12:44:07.121Z,77.99
2022-12-31T12:46:37.055Z,77.46
2022-12-31T12:49:05.118Z,77.10
2022-12-31T12:51:55.287Z,77.41
2022-12-31T12:54:42.027Z,77.34
2022-12-31T12:57:19.626Z,77.49
2022-12-31T13:00:07.544Z,77.47
2022-12-31T13:03:09.262Z,76.83
2022-12-31T13:05:48.331Z,76.75
2022-12-31T13:08:30.032Z,76.69
2022-12-31T13:11:11.512Z,76.45
2022-12-31T13:13:48.266Z,76.42
2022-12-31T13:16:23.796Z,76.41
2022-12-31T13:19:00.112Z,76.37
2022-12-31T13:21:45.349Z,75.95
2022-12-31T13:24:24.006Z,75.79
2022-12-31T13:27:00.255Z,75.51
2022-12-31T13:29:32.177Z,75.69
2022-12-31T13:32:03.350Z,75.19
2022-12-31T13:34:33.818Z,75.03
2022-12-31T13:37:07.776Z,75.35
2022-12-31T13:39:42.787Z,74.58
2022-12-31T13:42:17.652Z,74.55
2022-12-31T13:44:52.426Z,74.80
2022-12-31T13:47:28.775Z,73.98
2022-12-31T13:50:00.401Z,73.60
2022-12-31T13:52:31.658Z,74.04
2022-12-31T13:55:10.360Z,73.95
2022-12-31T13:57:43.205Z,73.46
2022-12-31T14:00:20.949Z,73.50
2022-12-31T14:02:56.722Z,73.62
2022-12-31T14:05:31.068Z,73.08
2022-12-31T14:08:01.650Z,73.15
2022-12-31T14:10:36.741Z,72.76
2022-12-31T14:13:17.671Z,73.24
2022-12-31T14:15:58.090Z,73.13
2022-12-31T14:18:33.996Z,74.38
2022-12-31T14:21:10.252Z,76.50
2022-12-31T14:23:47.433Z,76.70
2022-12-31T14:26:27.362Z,75.94
2022-12-31T14:29:07.279Z,75.73
2022-12-31T14:31:56.599Z,75.64
2022-12-31T14:34:34.083Z,75.69
2022-12-31T14:37:08.613Z,76.33
2022-12-31T14:39:49.492Z,75.47
2022-12-31T14:42:30.768Z,74.49
2022-12-31T14:45:16.290Z,75.02
2022-12-31T14:47:51.254Z,75.44
2022-12-31T14:50:23.494Z,75.01
2022-12-31T14:52:53.954Z,74.99
2022-12-31T14:55:27.454Z,74.53
2022-12-31T15:00:55.212Z,74.80
2022-12-31T15:03:34.316Z,74.56
2022-12-31T15:06:12.924Z,75.16
2022-12-31T15:08:50.244Z,75.36
2022-12-31T15:11:32.025Z,76.08
2022-12-31T15:14:37.222Z,75.79
2022-12-31T15:17:16.372Z,75.63
2022-12-31T15:20:17.645Z,75.95
2022-12-31T15:22:47.537Z,75.95
2022-12-31T15:25:36.795Z,76.27
2022-12-31T15:28:22.811Z,76.38
2022-12-31T15:30:53.151Z,76.45
2022-12-31T15:33:28.981Z,76.82
2022-12-31T15:35:58.360Z,77.04
2022-12-31T15:38:35.493Z,76.62
2022-12-31T15:41:16.874Z,76.83
2022-12-31T15:43:49.492Z,76.25
2022-12-31T15:46:22.200Z,76.71
2022-12-31T15:48:55.428Z,76.53
2022-12-31T15:51:30.431Z,76.86
2022-12-31T15:54:00.749Z,76.63
2022-12-31T15:56:34.394Z,76.39
2022-12-31T15:59:05.627Z,76.81
2022-12-31T16:01:37.017Z,76.53
2022-12-31T16:04:08.708Z,76.87
2022-12-31T16:06:38.515Z,76.85
2022-12-31T16:09:10.795Z,76.99
2022-12-31T16:11:41.645Z,77.10
2022-12-31T16:14:18.441Z,76.72
2022-12-31T16:16:55.111Z,76.83
2022-12-31T16:19:29.435Z,77.20
2022-12-31T16:22:01.609Z,77.38
2022-12-31T16:24:31.107Z,77.08
2022-12-31T16:27:02.206Z,76.89
2022-12-31T16:29:30.769Z,76.84
2022-12-31T16:31:59.843Z,77.13
2022-12-31T16:34:28.773Z,77.20
2022-12-31T16:36:58.902Z,77.75
2022-12-31T16:39:29.791Z,77.49
2022-12-31T16:42:18.541Z,77.00
2022-12-31T16:44:46.764Z,77.42
2022-12-31T16:47:21.665Z,77.34
2022-12-31T16:49:56.522Z,77.28
2022-12-31T16:52:29.202Z,76.81
2022-12-31T16:54:58.139Z,76.32
2022-12-31T16:57:28.278Z,76.90
2022-12-31T16:59:59.319Z,76.17
2022-12-31T17:02:35.090Z,76.44
2022-12-31T17:05:03.117Z,75.42
2022-12-31T17:07:41.790Z,75.26
2022-12-31T17:10:19.343Z,74.81
2022-12-31T17:15:41.646Z,74.04
2022-12-31T17:18:18.388Z,73.68
2022-12-31T17:20:46.232Z,73.36
2022-12-31T17:23:23.731Z,73.13
2022-12-31T17:25:58.864Z,72.37
2022-12-31T17:28:27.978Z,72.74
2022-12-31T17:31:01.024Z,72.38
2022-12-31T17:33:32.064Z,72.24
2022-12-31T17:36:16.137Z,71.87
2022-12-31T17:38:44.107Z,71.81
2022-12-31T17:41:24.356Z,71.61
2022-12-31T17:43:55.121Z,71.49
2022-12-31T17:46:24.241Z,71.36
2022-12-31T17:48:57.308Z,71.48
2022-12-31T17:51:25.002Z,71.66
2022-12-31T17:53:52.675Z,71.31
2022-12-31T17:56:21.505Z,71.15
2022-12-31T17:58:52.585Z,71.31
2022-12-31T18:01:22.556Z,71.54
2022-12-31T18:03:50.616Z,71.16
2022-12-31T18:06:20.197Z,71.44
2022-12-31T18:08:47.981Z,71.12
2022-12-31T18:11:18.798Z,71.07
2022-12-31T18:13:47.040Z,71.00
2022-12-31T18:16:15.367Z,70.95
2022-12-31T18:18:45.134Z,71.00
2022-12-31T18:21:21.009Z,70.71
2022-12-31T18:23:49.913Z,70.64
2022-12-31T18:26:19.798Z,71.15
2022-12-31T18:28:48.160Z,70.75
2022-12-31T18:31:20.011Z,70.84
2022-12-31T18:33:48.460Z,70.62
2022-12-31T18:36:20.118Z,70.75
2022-12-31T18:38:48.379Z,70.80
2022-12-31T18:41:18.840Z,71.29
2022-12-31T18:43:46.297Z,71.37
2022-12-31T18:46:15.104Z,70.93
2022-12-31T18:48:43.021Z,71.03
2022-12-31T18:51:15.034Z,71.09
2022-12-31T18:53:44.582Z,71.39
2022-12-31T18:56:13.874Z,71.34
2022-12-31T18:58:42.195Z,71.89
2022-12-31T19:01:26.403Z,72.20
2022-12-31T19:03:54.975Z,72.82
2022-12-31T19:06:22.837Z,73.38
2022-12-31T19:08:52.173Z,73.63
2022-12-31T19:11:20.201Z,74.20
2022-12-31T19:13:48.017Z,74.67
2022-12-31T19:16:15.689Z,74.86
2022-12-31T19:18:43.337Z,75.03
2022-12-31T19:21:16.496Z,75.01
2022-12-31T19:23:44.157Z,75.35
2022-12-31T19:26:16.319Z,75.64
2022-12-31T19:28:46.130Z,75.64
2022-12-31T19:31:14.400Z,75.59
2022-12-31T19:33:42.405Z,75.99
2022-12-31T19:36:15.515Z,75.65
2022-12-31T19:38:44.259Z,75.44
2022-12-31T19:41:18.639Z,75.60
2022-12-31T19:43:46.710Z,74.98
2022-12-31T19:46:15.330Z,74.80
2022-12-31T19:48:43.608Z,75.03
2022-12-31T19:51:16.524Z,74.73
2022-12-31T19:53:44.694Z,74.43
2022-12-31T19:56:14.003Z,74.45
2022-12-31T19:58:43.086Z,75.03
2022-12-31T20:01:19.509Z,74.86
2022-12-31T20:03:47.484Z,74.55
2022-12-31T20:06:15.876Z,74.99
2022-12-31T20:08:44.241Z,74.91
2022-12-31T20:11:14.163Z,75.14
2022-12-31T20:13:43.855Z,74.89
2022-12-31T20:16:13.187Z,74.26
2022-12-31T20:18:42.347Z,74.29
2022-12-31T20:21:11.762Z,73.90
2022-12-31T20:23:39.474Z,73.84
2022-12-31T20:26:07.440Z,73.86
2022-12-31T20:28:36.200Z,74.70
2022-12-31T20:31:07.769Z,74.08
2022-12-31T20:33:35.727Z,73.91
2022-12-31T20:36:04.152Z,73.32
2022-12-31T20:38:32.211Z,73.85
2022-12-31T20:41:04.228Z,73.43
2022-12-31T20:43:32.510Z,73.55
2022-12-31T20:46:00.393Z,73.67
2022-12-31T20:48:29.397Z,73.02
2022-12-31T20:50:57.685Z,72.35
2022-12-31T20:53:25.462Z,71.75
2022-12-31T20:55:53.133Z,72.06
2022-12-31T20:58:20.949Z,71.95
2022-12-31T21:00:50.021Z,71.76
2022-12-31T21:03:37.298Z,71.19
2022-12-31T21:06:07.998Z,71.31
2022-12-31T21:08:36.052Z,72.02
2022-12-31T21:11:24.546Z,71.52
2022-12-31T21:13:51.504Z,70.46
2022-12-31T21:16:19.479Z,71.06
2022-12-31T21:18:47.207Z,70.30
2022-12-31T21:21:16.257Z,69.85
2022-12-31T21:23:43.980Z,70.07
2022-12-31T21:26:11.644Z,69.65
2022-12-31T21:28:39.391Z,69.83
2022-12-31T21:31:08.765Z,69.39
2022-12-31T21:33:36.552Z,69.03
2022-12-31T21:36:05.071Z,69.21
2022-12-31T21:38:37.004Z,69.14
2022-12-31T21:41:05.640Z,68.29
2022-12-31T21:43:33.281Z,67.92
2022-12-31T21:46:02.542Z,67.99
2022-12-31T21:48:30.315Z,67.74
2022-12-31T21:51:07.867Z,66.81
2022-12-31T21:53:37.703Z,67.08
2022-12-31T21:56:08.446Z,66.63
2022-12-31T21:58:36.503Z,66.30
2022-12-31T22:01:22.164Z,65.95
2022-12-31T22:03:49.948Z,66.19
2022-12-31T22:06:21.554Z,65.91
2022-12-31T22:08:52.021Z,65.97
2022-12-31T22:11:20.608Z,65.80
2022-12-31T22:13:48.997Z,66.02
2022-12-31T22:16:17.191Z,66.11
2022-12-31T22:18:45.162Z,65.81
2022-12-31T22:21:18.982Z,65.38
2022-12-31T22:23:48.851Z,65.67
2022-12-31T22:26:21.136Z,65.93
2022-12-31T22:28:49.033Z,66.24
2022-12-31T22:31:19.048Z,65.82
2022-12-31T22:33:47.055Z,66.02
2022-12-31T22:36:16.434Z,66.44
2022-12-31T22:38:44.421Z,66.48
2022-12-31T22:41:14.091Z,66.97
2022-12-31T22:43:45.541Z,67.05
2022-12-31T22:46:14.957Z,67.25
2022-12-31T22:48:43.235Z,66.88
2022-12-31T22:51:12.065Z,66.82
2022-12-31T22:53:41.131Z,66.67
2022-12-31T22:56:09.289Z,66.82
2022-12-31T22:58:37.312Z,66.30
2022-12-31T23:01:07.481Z,66.18
2022-12-31T23:03:35.474Z,66.18
2022-12-31T23:06:03.229Z,65.61
2022-12-31T23:08:30.903Z,65.61
2022-12-31T23:11:05.411Z,65.52
2022-12-31T23:13:55.642Z,65.18
2022-12-31T23:16:44.132Z,65.81
2022-12-31T23:19:29.850Z,65.48
2022-12-31T23:22:15.159Z,65.25
2022-12-31T23:24:43.153Z,64.97
2022-12-31T23:27:11.505Z,65.41
2022-12-31T23:29:46.522Z,64.89
2022-12-31T23:32:16.755Z,64.78
2022-12-31T23:34:45.170Z,64.52
2022-12-31T23:37:13.127Z,64.69
2022-12-31T23:39:40.746Z,64.87
2022-12-31T23:42:08.658Z,64.52
2022-12-31T23:44:36.316Z,63.87
2022-12-31T23:47:04.129Z,64.35
2022-12-31T23:49:33.230Z,63.95
2022-12-31T23:52:00.865Z,63.58
2022-12-31T23:54:29.197Z,63.69
2022-12-31T23:56:56.998Z,63.52
2022-12-31T23:59:24.651Z,63.79
